sensor_id;sensor_type;location;lat;lon;timestamp;pressure;altitude;pressure_sealevel;temperature;humidity
12666;BME280;58531;59.050;17.416;2024-01-30T00:01:52;101923.00;;;1.70;100.00
12666;BME280;58531;59.050;17.416;2024-01-30T00:04:19;101924.81;;;1.66;100.00
12666;BME280;58531;59.050;17.416;2024-01-30T00:06:46;101930.41;;;1.64;100.00
12666;BME280;58531;59.050;17.416;2024-01-30T00:09:14;101929.22;;;1.62;100.00
12666;BME280;58531;59.050;17.416;2024-01-30T00:11:41;101922.00;;;1.59;100.00
12666;BME280;58531;59.050;17.416;2024-01-30T00:14:08;101922.69;;;1.56;100.00
12666;BME280;58531;59.050;17.416;2024-01-30T00:16:35;101920.47;;;1.58;100.00
12666;BME280;58531;59.050;17.416;2024-01-30T00:19:02;101925.31;;;1.56;100.00
12666;BME280;58531;59.050;17.416;2024-01-30T00:21:29;101926.06;;;1.56;100.00
12666;BME280;58531;59.050;17.416;2024-01-30T00:23:56;101920.47;;;1.58;100.00
12666;BME280;58531;59.050;17.416;2024-01-30T00:26:24;101921.59;;;1.57;100.00
12666;BME280;58531;59.050;17.416;2024-01-30T00:28:51;101917.41;;;1.56;100.00
12666;BME280;58531;59.050;17.416;2024-01-30T00:31:18;101921.16;;;1.55;100.00
12666;BME280;58531;59.050;17.416;2024-01-30T00:33:45;101929.75;;;1.52;100.00
12666;BME280;58531;59.050;17.416;2024-01-30T00:36:12;101928.63;;;1.53;100.00
12666;BME280;58531;59.050;17.416;2024-01-30T00:38:39;101925.94;;;1.49;100.00
12666;BME280;58531;59.050;17.416;2024-01-30T00:41:08;101930.84;;;1.51;100.00
12666;BME280;58531;59.050;17.416;2024-01-30T00:43:36;101930.09;;;1.50;100.00
12666;BME280;58531;59.050;17.416;2024-01-30T00:46:04;101931.28;;;1.53;100.00
12666;BME280;58531;59.050;17.416;2024-01-30T00:48:31;101937.63;;;1.52;100.00
12666;BME280;58531;59.050;17.416;2024-01-30T00:50:58;101932.72;;;1.50;100.00
12666;BME280;58531;59.050;17.416;2024-01-30T00:53:25;101927.78;;;1.49;100.00
12666;BME280;58531;59.050;17.416;2024-01-30T00:55:52;101922.09;;;1.47;100.00
12666;BME280;58531;59.050;17.416;2024-01-30T00:58:18;101926.50;;;1.43;100.00
12666;BME280;58531;59.050;17.416;2024-01-30T01:00:47;101929.41;;;1.38;100.00
12666;BME280;58531;59.050;17.416;2024-01-30T01:03:14;101923.81;;;1.39;100.00
12666;BME280;58531;59.050;17.416;2024-01-30T01:05:41;101930.25;;;1.42;100.00
12666;BME280;58531;59.050;17.416;2024-01-30T01:08:08;101928.81;;;1.44;100.00
12666;BME280;58531;59.050;17.416;2024-01-30T01:10:35;101934.16;;;1.48;100.00
12666;BME280;58531;59.050;17.416;2024-01-30T01:13:02;101927.38;;;1.47;100.00
12666;BME280;58531;59.050;17.416;2024-01-30T01:15:29;101923.56;;;1.44;100.00
12666;BME280;58531;59.050;17.416;2024-01-30T01:17:57;101928.47;;;1.46;100.00
12666;BME280;58531;59.050;17.416;2024-01-30T01:20:24;101930.59;;;1.40;100.00
12666;BME280;58531;59.050;17.416;2024-01-30T01:22:51;101933.91;;;1.37;100.00
12666;BME280;58531;59.050;17.416;2024-01-30T01:25:19;101936.88;;;1.36;100.00
12666;BME280;58531;59.050;17.416;2024-01-30T01:27:46;101929.41;;;1.38;100.00
12666;BME280;58531;59.050;17.416;2024-01-30T01:30:17;101928.66;;;1.37;100.00
12666;BME280;58531;59.050;17.416;2024-01-30T01:32:47;101930.75;;;1.32;100.00
12666;BME280;58531;59.050;17.416;2024-01-30T01:35:21;101933.69;;;1.27;100.00
12666;BME280;58531;59.050;17.416;2024-01-30T01:37:50;101938.94;;;1.27;100.00
12666;BME280;58531;59.050;17.416;2024-01-30T01:40:22;101932.81;;;1.23;100.00
12666;BME280;58531;59.050;17.416;2024-01-30T01:42:49;101936.44;;;1.18;100.00
12666;BME280;58531;59.050;17.416;2024-01-30T01:45:17;101933.31;;;1.13;100.00
12666;BME280;58531;59.050;17.416;2024-01-30T01:47:46;101923.72;;;1.05;100.00
12666;BME280;58531;59.050;17.416;2024-01-30T01:50:14;101927.78;;;1.03;100.00
12666;BME280;58531;59.050;17.416;2024-01-30T01:52:47;101926.28;;;1.02;100.00
12666;BME280;58531;59.050;17.416;2024-01-30T01:55:14;101923.28;;;1.03;100.00
12666;BME280;58531;59.050;17.416;2024-01-30T01:57:43;101926.34;;;1.05;100.00
12666;BME280;58531;59.050;17.416;2024-01-30T02:00:10;101924.91;;;1.08;100.00
12666;BME280;58531;59.050;17.416;2024-01-30T02:02:39;101915.22;;;1.12;100.00
12666;BME280;58531;59.050;17.416;2024-01-30T02:05:07;101909.41;;;1.18;100.00
12666;BME280;58531;59.050;17.416;2024-01-30T02:07:34;101907.19;;;1.20;100.00
12666;BME280;58531;59.050;17.416;2024-01-30T02:10:03;101907.19;;;1.20;100.00
12666;BME280;58531;59.050;17.416;2024-01-30T02:12:30;101905.00;;;1.22;100.00
12666;BME280;58531;59.050;17.416;2024-01-30T02:14:57;101910.31;;;1.25;100.00
12666;BME280;58531;59.050;17.416;2024-01-30T02:17:24;101907.38;;;1.27;100.00
12666;BME280;58531;59.050;17.416;2024-01-30T02:19:52;101911.50;;;1.28;100.00
12666;BME280;58531;59.050;17.416;2024-01-30T02:22:20;101917.97;;;1.30;100.00
12666;BME280;58531;59.050;17.416;2024-01-30T02:24:48;101920.22;;;1.32;100.00
12666;BME280;58531;59.050;17.416;2024-01-30T02:27:15;101923.22;;;1.30;100.00
12666;BME280;58531;59.050;17.416;2024-01-30T02:29:42;101918.72;;;1.31;100.00
12666;BME280;58531;59.050;17.416;2024-01-30T02:32:09;101920.22;;;1.32;100.00
12666;BME280;58531;59.050;17.416;2024-01-30T02:34:36;101919.50;;;1.31;100.00
12666;BME280;58531;59.050;17.416;2024-01-30T02:37:03;101919.38;;;1.28;100.00
12666;BME280;58531;59.050;17.416;2024-01-30T02:39:31;101914.56;;;1.30;100.00
12666;BME280;58531;59.050;17.416;2024-01-30T02:41:58;101910.06;;;1.30;100.00
12666;BME280;58531;59.050;17.416;2024-01-30T02:44:25;101912.00;;;1.33;100.00
12666;BME280;58531;59.050;17.416;2024-01-30T02:46:52;101915.81;;;1.36;100.00
12666;BME280;58531;59.050;17.416;2024-01-30T02:49:20;101925.66;;;1.39;100.00
12666;BME280;58531;59.050;17.416;2024-01-30T02:51:47;101925.00;;;1.42;100.00
12666;BME280;58531;59.050;17.416;2024-01-30T02:54:14;101927.63;;;1.42;100.00
12666;BME280;58531;59.050;17.416;2024-01-30T02:56:42;101916.75;;;1.43;100.00
12666;BME280;58531;59.050;17.416;2024-01-30T02:59:09;101908.09;;;1.43;100.00
12666;BME280;58531;59.050;17.416;2024-01-30T03:01:42;101901.72;;;1.44;100.00
12666;BME280;58531;59.050;17.416;2024-01-30T03:04:09;101904.72;;;1.42;100.00
12666;BME280;58531;59.050;17.416;2024-01-30T03:06:36;101905.28;;;1.36;100.00
12666;BME280;58531;59.050;17.416;2024-01-30T03:09:03;101901.50;;;1.33;100.00
12666;BME280;58531;59.050;17.416;2024-01-30T03:11:30;101902.50;;;1.29;100.00
12666;BME280;58531;59.050;17.416;2024-01-30T03:13:59;101904.03;;;1.30;100.00
12666;BME280;58531;59.050;17.416;2024-01-30T03:16:26;101899.97;;;1.32;100.00
12666;BME280;58531;59.050;17.416;2024-01-30T03:18:53;101904.44;;;1.32;100.00
12666;BME280;58531;59.050;17.416;2024-01-30T03:21:20;101905.13;;;1.29;100.00
12666;BME280;58531;59.050;17.416;2024-01-30T03:23:47;101906.84;;;1.21;100.00
12666;BME280;58531;59.050;17.416;2024-01-30T03:26:14;101917.63;;;1.16;100.00
12666;BME280;58531;59.050;17.416;2024-01-30T03:28:41;101917.28;;;1.18;100.00
12666;BME280;58531;59.050;17.416;2024-01-30T03:31:09;101923.22;;;1.15;100.00
12666;BME280;58531;59.050;17.416;2024-01-30T03:33:36;101923.66;;;1.17;100.00
12666;BME280;58531;59.050;17.416;2024-01-30T03:36:05;101927.38;;;1.16;100.00
12666;BME280;58531;59.050;17.416;2024-01-30T03:38:31;101921.69;;;1.14;100.00
12666;BME280;58531;59.050;17.416;2024-01-30T03:40:59;101919.06;;;1.14;100.00
12666;BME280;58531;59.050;17.416;2024-01-30T03:43:26;101920.59;;;1.15;100.00
12666;BME280;58531;59.050;17.416;2024-01-30T03:45:53;101906.25;;;1.13;100.00
12666;BME280;58531;59.050;17.416;2024-01-30T03:48:21;101905.13;;;1.13;100.00
12666;BME280;58531;59.050;17.416;2024-01-30T03:50:48;101908.03;;;1.09;100.00
12666;BME280;58531;59.050;17.416;2024-01-30T03:53:15;101897.50;;;1.09;100.00
12666;BME280;58531;59.050;17.416;2024-01-30T03:55:42;101900.91;;;1.09;100.00
12666;BME280;58531;59.050;17.416;2024-01-30T03:58:09;101904.63;;;1.08;100.00
12666;BME280;58531;59.050;17.416;2024-01-30T04:00:36;101906.16;;;1.09;100.00
12666;BME280;58531;59.050;17.416;2024-01-30T04:03:03;101906.84;;;1.06;100.00
12666;BME280;58531;59.050;17.416;2024-01-30T04:05:31;101907.28;;;1.08;100.00
12666;BME280;58531;59.050;17.416;2024-01-30T04:07:59;101908.38;;;1.07;100.00
12666;BME280;58531;59.050;17.416;2024-01-30T04:10:26;101915.84;;;1.05;100.00
12666;BME280;58531;59.050;17.416;2024-01-30T04:12:53;101909.03;;;1.04;100.00
12666;BME280;58531;59.050;17.416;2024-01-30T04:15:21;101909.03;;;1.04;100.00
12666;BME280;58531;59.050;17.416;2024-01-30T04:17:48;101916.50;;;1.02;100.00
12666;BME280;58531;59.050;17.416;2024-01-30T04:20:15;101906.66;;;0.99;100.00
12666;BME280;58531;59.050;17.416;2024-01-30T04:22:44;101903.72;;;1.01;100.00
12666;BME280;58531;59.050;17.416;2024-01-30T04:25:12;101890.22;;;1.02;100.00
12666;BME280;58531;59.050;17.416;2024-01-30T04:27:39;101887.81;;;0.97;100.00
12666;BME280;58531;59.050;17.416;2024-01-30T04:30:07;101897.25;;;0.98;100.00
12666;BME280;58531;59.050;17.416;2024-01-30T04:32:35;101895.28;;;0.95;100.00
12666;BME280;58531;59.050;17.416;2024-01-30T04:35:02;101904.22;;;0.91;100.00
12666;BME280;58531;59.050;17.416;2024-01-30T04:37:29;101904.28;;;0.94;100.00
12666;BME280;58531;59.050;17.416;2024-01-30T04:39:57;101906.50;;;0.92;100.00
12666;BME280;58531;59.050;17.416;2024-01-30T04:42:24;101911.00;;;0.92;100.00
12666;BME280;58531;59.050;17.416;2024-01-30T04:44:51;101905.75;;;0.92;100.00
12666;BME280;58531;59.050;17.416;2024-01-30T04:47:18;101907.94;;;0.90;100.00
12666;BME280;58531;59.050;17.416;2024-01-30T04:49:45;101899.69;;;0.91;100.00
12666;BME280;58531;59.050;17.416;2024-01-30T04:52:12;101903.53;;;0.94;100.00
12666;BME280;58531;59.050;17.416;2024-01-30T04:54:39;101904.28;;;0.94;100.00
12666;BME280;58531;59.050;17.416;2024-01-30T04:57:07;101911.00;;;0.92;100.00
12666;BME280;58531;59.050;17.416;2024-01-30T04:59:37;101912.84;;;0.91;100.00
12666;BME280;58531;59.050;17.416;2024-01-30T05:02:04;101916.34;;;0.95;100.00
12666;BME280;58531;59.050;17.416;2024-01-30T05:04:31;101928.06;;;0.98;100.00
12666;BME280;58531;59.050;17.416;2024-01-30T05:06:58;101919.75;;;0.96;100.00
12666;BME280;58531;59.050;17.416;2024-01-30T05:09:25;101917.44;;;0.94;100.00
12666;BME280;58531;59.050;17.416;2024-01-30T05:11:52;101915.47;;;0.91;100.00
12666;BME280;58531;59.050;17.416;2024-01-30T05:14:20;101910.22;;;0.91;100.00
12666;BME280;58531;59.050;17.416;2024-01-30T05:16:47;101913.53;;;0.88;100.00
12666;BME280;58531;59.050;17.416;2024-01-30T05:19:14;101907.59;;;0.91;100.00
12666;BME280;58531;59.050;17.416;2024-01-30T05:21:41;101911.31;;;0.90;100.00
12666;BME280;58531;59.050;17.416;2024-01-30T05:24:08;101911.75;;;0.92;100.00
12666;BME280;58531;59.050;17.416;2024-01-30T05:26:35;101909.13;;;0.92;100.00
12666;BME280;58531;59.050;17.416;2024-01-30T05:29:03;101911.59;;;1.01;100.00
12666;BME280;58531;59.050;17.416;2024-01-30T05:31:31;101911.94;;;0.99;100.00
12666;BME280;58531;59.050;17.416;2024-01-30T05:33:58;101908.97;;;1.01;100.00
12666;BME280;58531;59.050;17.416;2024-01-30T05:36:25;101900.66;;;0.99;100.00
12666;BME280;58531;59.050;17.416;2024-01-30T05:38:52;101904.47;;;1.01;100.00
12666;BME280;58531;59.050;17.416;2024-01-30T05:41:19;101892.09;;;1.02;100.00
12666;BME280;58531;59.050;17.416;2024-01-30T05:43:47;101894.97;;;0.97;100.00
12666;BME280;58531;59.050;17.416;2024-01-30T05:46:14;101890.38;;;0.94;100.00
12666;BME280;58531;59.050;17.416;2024-01-30T05:48:42;101900.56;;;0.95;100.00
12666;BME280;58531;59.050;17.416;2024-01-30T05:51:09;101896.81;;;0.96;100.00
12666;BME280;58531;59.050;17.416;2024-01-30T05:53:36;101889.78;;;1.00;100.00
12666;BME280;58531;59.050;17.416;2024-01-30T05:56:04;101899.19;;;1.01;100.00
12666;BME280;58531;59.050;17.416;2024-01-30T05:58:31;101902.69;;;1.05;100.00
12666;BME280;58531;59.050;17.416;2024-01-30T06:00:58;101911.44;;;1.09;100.00
12666;BME280;58531;59.050;17.416;2024-01-30T06:03:25;101916.75;;;1.13;100.00
12666;BME280;58531;59.050;17.416;2024-01-30T06:05:53;101913.03;;;1.13;100.00
12666;BME280;58531;59.050;17.416;2024-01-30T06:08:20;101896.50;;;1.13;100.00
12666;BME280;58531;59.050;17.416;2024-01-30T06:10:47;101896.81;;;1.12;100.00
12666;BME280;58531;59.050;17.416;2024-01-30T06:13:14;101885.44;;;1.08;100.00
12666;BME280;58531;59.050;17.416;2024-01-30T06:15:41;101889.19;;;1.07;100.00
12666;BME280;58531;59.050;17.416;2024-01-30T06:18:08;101897.16;;;1.10;100.00
12666;BME280;58531;59.050;17.416;2024-01-30T06:20:35;101892.75;;;1.14;100.00
12666;BME280;58531;59.050;17.416;2024-01-30T06:23:04;101898.44;;;1.16;100.00
12666;BME280;58531;59.050;17.416;2024-01-30T06:25:31;101905.56;;;1.15;100.00
12666;BME280;58531;59.050;17.416;2024-01-30T06:27:58;101903.28;;;1.14;100.00
12666;BME280;58531;59.050;17.416;2024-01-30T06:30:25;101893.50;;;1.14;100.00
12666;BME280;58531;59.050;17.416;2024-01-30T06:32:52;101901.09;;;1.16;100.00
12666;BME280;58531;59.050;17.416;2024-01-30T06:35:19;101890.13;;;1.14;100.00
12666;BME280;58531;59.050;17.416;2024-01-30T06:37:47;101893.44;;;1.11;100.00
12666;BME280;58531;59.050;17.416;2024-01-30T06:40:15;101897.91;;;1.11;100.00
12666;BME280;58531;59.050;17.416;2024-01-30T06:42:42;101902.44;;;1.10;100.00
12666;BME280;58531;59.050;17.416;2024-01-30T06:45:09;101901.34;;;1.11;100.00
12666;BME280;58531;59.050;17.416;2024-01-30T06:47:36;101907.78;;;1.13;100.00
12666;BME280;58531;59.050;17.416;2024-01-30T06:50:04;101921.34;;;1.15;100.00
12666;BME280;58531;59.050;17.416;2024-01-30T06:52:31;101925.94;;;1.18;100.00
12666;BME280;58531;59.050;17.416;2024-01-30T06:54:57;101922.97;;;1.20;100.00
12666;BME280;58531;59.050;17.416;2024-01-30T06:57:26;101915.50;;;1.22;100.00
12666;BME280;58531;59.050;17.416;2024-01-30T06:59:53;101910.66;;;1.24;100.00
12666;BME280;58531;59.050;17.416;2024-01-30T07:02:20;101909.16;;;1.23;100.00
12666;BME280;58531;59.050;17.416;2024-01-30T07:04:47;101906.94;;;1.25;100.00
12666;BME280;58531;59.050;17.416;2024-01-30T07:07:14;101898.25;;;1.24;100.00
12666;BME280;58531;59.050;17.416;2024-01-30T07:09:41;101897.50;;;1.24;100.00
12666;BME280;58531;59.050;17.416;2024-01-30T07:12:08;101900.56;;;1.26;100.00
12666;BME280;58531;59.050;17.416;2024-01-30T07:14:37;101898.34;;;1.28;100.00
12666;BME280;58531;59.050;17.416;2024-01-30T07:17:04;101899.19;;;1.32;100.00
12666;BME280;58531;59.050;17.416;2024-01-30T07:19:31;101904.31;;;1.25;100.00
12666;BME280;58531;59.050;17.416;2024-01-30T07:22:00;101896.13;;;1.30;100.00
12666;BME280;58531;59.050;17.416;2024-01-30T07:24:27;101891.22;;;1.28;100.00
12666;BME280;58531;59.050;17.416;2024-01-30T07:26:54;101895.03;;;1.31;100.00
12666;BME280;58531;59.050;17.416;2024-01-30T07:29:21;101893.25;;;1.35;100.00
12666;BME280;58531;59.050;17.416;2024-01-30T07:31:49;101893.50;;;1.30;100.00
12666;BME280;58531;59.050;17.416;2024-01-30T07:34:16;101900.38;;;1.34;100.00
12666;BME280;58531;59.050;17.416;2024-01-30T07:36:43;101900.13;;;1.39;100.00
12666;BME280;58531;59.050;17.416;2024-01-30T07:39:11;101906.25;;;1.43;100.00
12666;BME280;58531;59.050;17.416;2024-01-30T07:41:38;101899.50;;;1.46;100.00
12666;BME280;58531;59.050;17.416;2024-01-30T07:44:05;101901.66;;;1.40;100.00
12666;BME280;58531;59.050;17.416;2024-01-30T07:46:32;101900.63;;;1.45;100.00
12666;BME280;58531;59.050;17.416;2024-01-30T07:49:00;101898.34;;;1.43;100.00
12666;BME280;58531;59.050;17.416;2024-01-30T07:51:28;101897.13;;;1.41;100.00
12666;BME280;58531;59.050;17.416;2024-01-30T07:53:57;101894.94;;;1.43;100.00
12666;BME280;58531;59.050;17.416;2024-01-30T07:56:24;101894.25;;;1.46;100.00
12666;BME280;58531;59.050;17.416;2024-01-30T07:58:51;101892.81;;;1.48;100.00
12666;BME280;58531;59.050;17.416;2024-01-30T08:01:18;101886.09;;;1.51;100.00
12666;BME280;58531;59.050;17.416;2024-01-30T08:03:45;101884.31;;;1.55;100.00
12666;BME280;58531;59.050;17.416;2024-01-30T08:06:14;101877.59;;;1.57;100.00
12666;BME280;58531;59.050;17.416;2024-01-30T08:08:41;101875.09;;;1.64;100.00
12666;BME280;58531;59.050;17.416;2024-01-30T08:11:08;101876.56;;;1.62;100.00
12666;BME280;58531;59.050;17.416;2024-01-30T08:13:34;101875.78;;;1.61;100.00
12666;BME280;58531;59.050;17.416;2024-01-30T08:16:01;101877.84;;;1.68;100.00
12666;BME280;58531;59.050;17.416;2024-01-30T08:18:28;101880.63;;;1.75;100.00
12666;BME280;58531;59.050;17.416;2024-01-30T08:20:55;101883.72;;;1.80;100.00
12666;BME280;58531;59.050;17.416;2024-01-30T08:23:24;101885.19;;;1.78;100.00
12666;BME280;58531;59.050;17.416;2024-01-30T08:25:50;101886.44;;;1.84;100.00
12666;BME280;58531;59.050;17.416;2024-01-30T08:28:17;101887.13;;;1.81;100.00
12666;BME280;58531;59.050;17.416;2024-01-30T08:30:44;101885.59;;;1.80;100.00
12666;BME280;58531;59.050;17.416;2024-01-30T08:33:11;101881.16;;;1.84;100.00
12666;BME280;58531;59.050;17.416;2024-01-30T08:35:38;101877.84;;;1.87;100.00
12666;BME280;58531;59.050;17.416;2024-01-30T08:38:05;101883.25;;;1.94;100.00
12666;BME280;58531;59.050;17.416;2024-01-30T08:40:34;101885.63;;;1.99;100.00
12666;BME280;58531;59.050;17.416;2024-01-30T08:43:00;101886.47;;;2.03;100.00
12666;BME280;58531;59.050;17.416;2024-01-30T08:45:28;101875.91;;;2.03;100.00
12666;BME280;58531;59.050;17.416;2024-01-30T08:47:55;101878.69;;;2.10;100.00
12666;BME280;58531;59.050;17.416;2024-01-30T08:50:22;101886.38;;;2.18;100.00
12666;BME280;58531;59.050;17.416;2024-01-30T08:52:49;101890.56;;;2.19;100.00
12666;BME280;58531;59.050;17.416;2024-01-30T08:55:16;101898.97;;;2.25;100.00
12666;BME280;58531;59.050;17.416;2024-01-30T08:57:44;101898.78;;;2.36;100.00
12666;BME280;58531;59.050;17.416;2024-01-30T09:00:12;101892.53;;;2.44;100.00
12666;BME280;58531;59.050;17.416;2024-01-30T09:02:40;101888.06;;;2.45;100.00
12666;BME280;58531;59.050;17.416;2024-01-30T09:05:07;101889.13;;;2.63;100.00
12666;BME280;58531;59.050;17.416;2024-01-30T09:07:34;101896.00;;;2.67;100.00
12666;BME280;58531;59.050;17.416;2024-01-30T09:10:01;101891.88;;;2.70;100.00
12666;BME280;58531;59.050;17.416;2024-01-30T09:12:28;101892.44;;;2.79;100.00
12666;BME280;58531;59.050;17.416;2024-01-30T09:14:56;101889.97;;;2.89;100.00
12666;BME280;58531;59.050;17.416;2024-01-30T09:17:23;101894.25;;;2.97;100.00
12666;BME280;58531;59.050;17.416;2024-01-30T09:19:50;101888.25;;;3.00;100.00
12666;BME280;58531;59.050;17.416;2024-01-30T09:22:17;101892.38;;;2.98;100.00
12666;BME280;58531;59.050;17.416;2024-01-30T09:24:44;101880.47;;;3.07;100.00
12666;BME280;58531;59.050;17.416;2024-01-30T09:27:11;101879.47;;;2.93;100.00
12666;BME280;58531;59.050;17.416;2024-01-30T09:29:38;101877.72;;;3.00;100.00
12666;BME280;58531;59.050;17.416;2024-01-30T09:32:07;101873.28;;;3.08;100.00
12666;BME280;58531;59.050;17.416;2024-01-30T09:34:34;101872.50;;;3.04;100.00
12666;BME280;58531;59.050;17.416;2024-01-30T09:37:01;101870.78;;;2.92;100.00
12666;BME280;58531;59.050;17.416;2024-01-30T09:39:28;101876.03;;;2.89;100.00
12666;BME280;58531;59.050;17.416;2024-01-30T09:42:02;101876.03;;;2.89;100.00
12666;BME280;58531;59.050;17.416;2024-01-30T09:44:33;101872.44;;;3.00;100.00
12666;BME280;58531;59.050;17.416;2024-01-30T09:47:01;101877.38;;;3.02;100.00
12666;BME280;58531;59.050;17.416;2024-01-30T09:49:33;101880.94;;;2.90;100.00
12666;BME280;58531;59.050;17.416;2024-01-30T09:52:00;101875.94;;;2.85;100.00
12666;BME280;58531;59.050;17.416;2024-01-30T09:54:29;101870.38;;;2.90;100.00
12666;BME280;58531;59.050;17.416;2024-01-30T09:56:57;101856.59;;;3.00;100.00
12666;BME280;58531;59.050;17.416;2024-01-30T09:59:24;101862.75;;;3.08;100.00
12666;BME280;58531;59.050;17.416;2024-01-30T10:01:51;101859.75;;;3.09;100.00
12666;BME280;58531;59.050;17.416;2024-01-30T10:04:18;101851.56;;;3.14;100.00
12666;BME280;58531;59.050;17.416;2024-01-30T10:06:47;101856.00;;;3.10;100.00
12666;BME280;58531;59.050;17.416;2024-01-30T10:09:14;101857.56;;;3.15;100.00
12666;BME280;58531;59.050;17.416;2024-01-30T10:11:41;101859.75;;;3.09;100.00
12666;BME280;58531;59.050;17.416;2024-01-30T10:14:08;101860.47;;;3.06;100.00
12666;BME280;58531;59.050;17.416;2024-01-30T10:16:36;101869.38;;;2.98;100.00
12666;BME280;58531;59.050;17.416;2024-01-30T10:19:03;101869.25;;;2.91;100.00
12666;BME280;58531;59.050;17.416;2024-01-30T10:21:30;101870.16;;;2.99;100.00
12666;BME280;58531;59.050;17.416;2024-01-30T10:23:58;101865.94;;;2.94;100.00
12666;BME280;58531;59.050;17.416;2024-01-30T10:26:25;101851.50;;;2.88;100.00
12666;BME280;58531;59.050;17.416;2024-01-30T10:28:54;101848.97;;;2.95;100.00
12666;BME280;58531;59.050;17.416;2024-01-30T10:31:21;101847.88;;;2.96;100.00
12666;BME280;58531;59.050;17.416;2024-01-30T10:33:49;101839.63;;;2.98;100.00
12666;BME280;58531;59.050;17.416;2024-01-30T10:36:17;101828.34;;;3.01;100.00
12666;BME280;58531;59.050;17.416;2024-01-30T10:38:45;101827.44;;;3.16;100.00
12666;BME280;58531;59.050;17.416;2024-01-30T10:41:15;101826.81;;;3.26;100.00
12666;BME280;58531;59.050;17.416;2024-01-30T10:44:02;101815.00;;;3.42;100.00
12666;BME280;58531;59.050;17.416;2024-01-30T10:46:32;101807.38;;;3.37;100.00
12666;BME280;58531;59.050;17.416;2024-01-30T10:49:00;101812.63;;;3.34;100.00
12666;BME280;58531;59.050;17.416;2024-01-30T10:51:27;101818.75;;;3.41;100.00
12666;BME280;58531;59.050;17.416;2024-01-30T10:53:56;101809.00;;;3.45;100.00
12666;BME280;58531;59.050;17.416;2024-01-30T10:56:25;101800.31;;;3.45;100.00
12666;BME280;58531;59.050;17.416;2024-01-30T10:58:53;101812.72;;;3.41;100.00
12666;BME280;58531;59.050;17.416;2024-01-30T11:01:22;101821.19;;;3.53;100.00
12666;BME280;58531;59.050;17.416;2024-01-30T11:03:50;101820.66;;;3.44;100.00
12666;BME280;58531;59.050;17.416;2024-01-30T11:06:17;101812.09;;;3.50;100.00
12666;BME280;58531;59.050;17.416;2024-01-30T11:08:45;101804.38;;;3.39;100.00
12666;BME280;58531;59.050;17.416;2024-01-30T11:11:12;101800.66;;;3.43;100.00
12666;BME280;58531;59.050;17.416;2024-01-30T11:13:40;101796.56;;;3.46;100.00
12666;BME280;58531;59.050;17.416;2024-01-30T11:16:11;101789.50;;;3.53;100.00
12666;BME280;58531;59.050;17.416;2024-01-30T11:18:38;101778.63;;;3.58;100.00
12666;BME280;58531;59.050;17.416;2024-01-30T11:21:05;101772.94;;;3.56;100.00
12666;BME280;58531;59.050;17.416;2024-01-30T11:23:34;101773.91;;;3.74;100.00
12666;BME280;58531;59.050;17.416;2024-01-30T11:26:01;101773.28;;;3.87;100.00
12666;BME280;58531;59.050;17.416;2024-01-30T11:28:32;101774.03;;;3.88;100.00
12666;BME280;58531;59.050;17.416;2024-01-30T11:31:05;101763.59;;;3.98;100.00
12666;BME280;58531;59.050;17.416;2024-01-30T11:33:32;101773.88;;;4.07;100.00
12666;BME280;58531;59.050;17.416;2024-01-30T11:36:00;101765.88;;;4.00;100.00
12666;BME280;58531;59.050;17.416;2024-01-30T11:38:28;101754.56;;;3.99;100.00
12666;BME280;58531;59.050;17.416;2024-01-30T11:40:55;101755.09;;;3.79;100.00
12666;BME280;58531;59.050;17.416;2024-01-30T11:43:23;101753.53;;;3.74;100.00
12666;BME280;58531;59.050;17.416;2024-01-30T11:45:51;101743.72;;;3.75;100.00
12666;BME280;58531;59.050;17.416;2024-01-30T11:48:19;101745.34;;;3.86;100.00
12666;BME280;58531;59.050;17.416;2024-01-30T11:50:46;101739.25;;;3.79;100.00
12666;BME280;58531;59.050;17.416;2024-01-30T11:53:13;101745.25;;;3.76;100.00
12666;BME280;58531;59.050;17.416;2024-01-30T11:55:40;101743.31;;;3.73;100.00
12666;BME280;58531;59.050;17.416;2024-01-30T11:58:08;101735.34;;;3.69;100.00
12666;BME280;58531;59.050;17.416;2024-01-30T12:00:35;101730.97;;;3.84;100.00
12666;BME280;58531;59.050;17.416;2024-01-30T12:03:03;101737.72;;;3.78;100.00
12666;BME280;58531;59.050;17.416;2024-01-30T12:05:33;101728.38;;;3.87;100.00
12666;BME280;58531;59.050;17.416;2024-01-30T12:08:01;101731.78;;;3.88;100.00
12666;BME280;58531;59.050;17.416;2024-01-30T12:10:28;101736.59;;;3.79;100.00
12666;BME280;58531;59.050;17.416;2024-01-30T12:12:55;101729.41;;;3.76;100.00
12666;BME280;58531;59.050;17.416;2024-01-30T12:15:22;101729.44;;;3.83;100.00
12666;BME280;58531;59.050;17.416;2024-01-30T12:17:49;101722.72;;;3.89;100.00
12666;BME280;58531;59.050;17.416;2024-01-30T12:20:18;101717.50;;;3.96;100.00
12666;BME280;58531;59.050;17.416;2024-01-30T12:22:48;101710.75;;;3.98;100.00
12666;BME280;58531;59.050;17.416;2024-01-30T12:25:16;101710.03;;;4.01;100.00
12666;BME280;58531;59.050;17.416;2024-01-30T12:27:44;101713.81;;;4.04;100.00
12666;BME280;58531;59.050;17.416;2024-01-30T12:30:13;101700.19;;;3.98;100.00
12666;BME280;58531;59.050;17.416;2024-01-30T12:32:41;101691.00;;;3.89;100.00
12666;BME280;58531;59.050;17.416;2024-01-30T12:35:09;101695.09;;;3.83;100.00
12666;BME280;58531;59.050;17.416;2024-01-30T12:37:36;101695.56;;;3.92;100.00
12666;BME280;58531;59.050;17.416;2024-01-30T12:40:06;101692.81;;;3.78;100.00
12666;BME280;58531;59.050;17.416;2024-01-30T12:42:33;101690.91;;;3.75;100.00